sensor_id;sensor_type;location;lat;lon;timestamp;P1;durP1;ratioP1;P2;durP2;ratioP2
22778;SDS011;11556;51.194;3.800;2023-09-19T00:00:20;4.88;;;1.70;;
22778;SDS011;11556;51.194;3.800;2023-09-19T00:02:56;17.15;;;2.67;;
22778;SDS011;11556;51.194;3.800;2023-09-19T00:05:28;11.20;;;2.00;;
22778;SDS011;11556;51.194;3.800;2023-09-19T00:07:57;12.23;;;2.33;;
22778;SDS011;11556;51.194;3.800;2023-09-19T00:10:26;6.15;;;2.05;;
22778;SDS011;11556;51.194;3.800;2023-09-19T00:12:56;13.75;;;2.55;;
22778;SDS011;11556;51.194;3.800;2023-09-19T00:15:25;10.38;;;2.03;;
22778;SDS011;11556;51.194;3.800;2023-09-19T00:17:56;15.10;;;2.40;;
22778;SDS011;11556;51.194;3.800;2023-09-19T00:20:22;10.82;;;2.03;;
22778;SDS011;11556;51.194;3.800;2023-09-19T00:22:49;10.90;;;2.10;;
22778;SDS011;11556;51.194;3.800;2023-09-19T00:25:18;9.10;;;2.10;;
22778;SDS011;11556;51.194;3.800;2023-09-19T00:27:45;9.75;;;2.08;;
22778;SDS011;11556;51.194;3.800;2023-09-19T00:30:16;10.10;;;2.10;;
22778;SDS011;11556;51.194;3.800;2023-09-19T00:32:46;7.15;;;1.80;;
22778;SDS011;11556;51.194;3.800;2023-09-19T00:35:13;15.27;;;2.55;;
22778;SDS011;11556;51.194;3.800;2023-09-19T00:37:40;9.82;;;2.20;;
22778;SDS011;11556;51.194;3.800;2023-09-19T00:40:09;12.55;;;1.90;;
22778;SDS011;11556;51.194;3.800;2023-09-19T00:42:37;8.75;;;2.25;;
22778;SDS011;11556;51.194;3.800;2023-09-19T00:45:04;7.85;;;2.30;;
22778;SDS011;11556;51.194;3.800;2023-09-19T00:47:31;12.23;;;2.75;;
22778;SDS011;11556;51.194;3.800;2023-09-19T00:49:57;9.25;;;1.95;;
22778;SDS011;11556;51.194;3.800;2023-09-19T00:52:23;13.57;;;1.85;;
22778;SDS011;11556;51.194;3.800;2023-09-19T00:54:49;11.63;;;2.17;;
22778;SDS011;11556;51.194;3.800;2023-09-19T00:57:15;10.20;;;2.40;;
22778;SDS011;11556;51.194;3.800;2023-09-19T00:59:42;10.05;;;2.03;;
22778;SDS011;11556;51.194;3.800;2023-09-19T01:02:08;10.30;;;2.35;;
22778;SDS011;11556;51.194;3.800;2023-09-19T01:04:34;8.02;;;2.17;;
22778;SDS011;11556;51.194;3.800;2023-09-19T01:07:00;7.75;;;2.00;;
22778;SDS011;11556;51.194;3.800;2023-09-19T01:09:25;8.70;;;2.38;;
22778;SDS011;11556;51.194;3.800;2023-09-19T01:11:53;10.18;;;2.03;;
22778;SDS011;11556;51.194;3.800;2023-09-19T01:28:06;10.13;;;2.22;;
22778;SDS011;11556;51.194;3.800;2023-09-19T01:30:51;10.83;;;2.20;;
22778;SDS011;11556;51.194;3.800;2023-09-19T01:33:24;6.88;;;1.85;;
22778;SDS011;11556;51.194;3.800;2023-09-19T01:35:50;12.15;;;2.17;;
22778;SDS011;11556;51.194;3.800;2023-09-19T01:38:17;9.85;;;2.20;;
22778;SDS011;11556;51.194;3.800;2023-09-19T01:40:46;10.93;;;2.30;;
22778;SDS011;11556;51.194;3.800;2023-09-19T01:43:33;12.52;;;2.63;;
22778;SDS011;11556;51.194;3.800;2023-09-19T01:46:28;11.60;;;2.25;;
22778;SDS011;11556;51.194;3.800;2023-09-19T01:48:59;12.38;;;2.42;;
22778;SDS011;11556;51.194;3.800;2023-09-19T01:51:53;10.30;;;2.80;;
22778;SDS011;11556;51.194;3.800;2023-09-19T01:54:30;9.20;;;2.08;;
22778;SDS011;11556;51.194;3.800;2023-09-19T01:57:03;9.88;;;2.30;;
22778;SDS011;11556;51.194;3.800;2023-09-19T01:59:36;12.20;;;2.83;;
22778;SDS011;11556;51.194;3.800;2023-09-19T02:02:06;14.23;;;2.38;;
22778;SDS011;11556;51.194;3.800;2023-09-19T02:04:33;12.02;;;2.38;;
22778;SDS011;11556;51.194;3.800;2023-09-19T02:07:02;11.57;;;2.45;;
22778;SDS011;11556;51.194;3.800;2023-09-19T02:09:28;13.52;;;2.40;;
22778;SDS011;11556;51.194;3.800;2023-09-19T02:11:53;12.38;;;2.78;;
22778;SDS011;11556;51.194;3.800;2023-09-19T02:14:20;10.05;;;2.33;;
22778;SDS011;11556;51.194;3.800;2023-09-19T02:16:47;16.48;;;3.00;;
22778;SDS011;11556;51.194;3.800;2023-09-19T02:19:15;14.00;;;2.63;;
22778;SDS011;11556;51.194;3.800;2023-09-19T02:21:42;9.43;;;2.45;;
22778;SDS011;11556;51.194;3.800;2023-09-19T02:24:08;14.32;;;2.53;;
22778;SDS011;11556;51.194;3.800;2023-09-19T02:26:35;14.23;;;2.80;;
22778;SDS011;11556;51.194;3.800;2023-09-19T02:29:02;12.73;;;2.45;;
22778;SDS011;11556;51.194;3.800;2023-09-19T02:31:30;10.25;;;2.33;;
22778;SDS011;11556;51.194;3.800;2023-09-19T02:33:56;12.45;;;2.35;;
22778;SDS011;11556;51.194;3.800;2023-09-19T02:36:21;14.73;;;2.42;;
22778;SDS011;11556;51.194;3.800;2023-09-19T02:38:48;11.77;;;2.38;;
22778;SDS011;11556;51.194;3.800;2023-09-19T02:41:14;13.70;;;2.47;;
22778;SDS011;11556;51.194;3.800;2023-09-19T02:43:39;13.45;;;2.72;;
22778;SDS011;11556;51.194;3.800;2023-09-19T02:46:05;14.75;;;3.05;;
22778;SDS011;11556;51.194;3.800;2023-09-19T02:48:31;16.90;;;2.65;;
22778;SDS011;11556;51.194;3.800;2023-09-19T02:50:59;14.13;;;2.80;;
22778;SDS011;11556;51.194;3.800;2023-09-19T02:53:25;16.00;;;2.97;;
22778;SDS011;11556;51.194;3.800;2023-09-19T02:55:51;14.32;;;2.90;;
22778;SDS011;11556;51.194;3.800;2023-09-19T02:58:17;15.05;;;2.60;;
22778;SDS011;11556;51.194;3.800;2023-09-19T03:00:43;14.48;;;2.80;;
22778;SDS011;11556;51.194;3.800;2023-09-19T03:03:12;12.95;;;2.28;;
22778;SDS011;11556;51.194;3.800;2023-09-19T03:05:40;13.27;;;2.75;;
22778;SDS011;11556;51.194;3.800;2023-09-19T03:08:12;11.25;;;2.67;;
22778;SDS011;11556;51.194;3.800;2023-09-19T03:10:40;12.85;;;2.58;;
22778;SDS011;11556;51.194;3.800;2023-09-19T03:13:05;12.27;;;2.65;;
22778;SDS011;11556;51.194;3.800;2023-09-19T03:15:34;13.65;;;2.65;;
22778;SDS011;11556;51.194;3.800;2023-09-19T03:18:03;15.63;;;2.40;;
22778;SDS011;11556;51.194;3.800;2023-09-19T03:20:30;10.73;;;2.78;;
22778;SDS011;11556;51.194;3.800;2023-09-19T03:22:55;9.18;;;2.45;;
22778;SDS011;11556;51.194;3.800;2023-09-19T03:25:22;11.57;;;2.53;;
22778;SDS011;11556;51.194;3.800;2023-09-19T03:27:48;12.13;;;2.53;;
22778;SDS011;11556;51.194;3.800;2023-09-19T03:30:14;11.32;;;2.47;;
22778;SDS011;11556;51.194;3.800;2023-09-19T03:32:46;14.82;;;2.97;;
22778;SDS011;11556;51.194;3.800;2023-09-19T03:35:14;13.60;;;2.53;;
22778;SDS011;11556;51.194;3.800;2023-09-19T03:37:41;9.30;;;2.17;;
22778;SDS011;11556;51.194;3.800;2023-09-19T03:40:08;11.30;;;2.50;;
22778;SDS011;11556;51.194;3.800;2023-09-19T03:42:37;13.13;;;2.72;;
22778;SDS011;11556;51.194;3.800;2023-09-19T03:45:04;13.20;;;2.17;;
22778;SDS011;11556;51.194;3.800;2023-09-19T03:47:31;9.38;;;2.30;;
22778;SDS011;11556;51.194;3.800;2023-09-19T03:49:58;12.68;;;2.50;;
22778;SDS011;11556;51.194;3.800;2023-09-19T03:52:23;9.85;;;2.60;;
22778;SDS011;11556;51.194;3.800;2023-09-19T03:54:50;10.85;;;2.78;;
22778;SDS011;11556;51.194;3.800;2023-09-19T03:57:15;12.13;;;2.60;;
22778;SDS011;11556;51.194;3.800;2023-09-19T03:59:45;11.20;;;2.88;;
22778;SDS011;11556;51.194;3.800;2023-09-19T04:02:11;11.18;;;2.25;;
22778;SDS011;11556;51.194;3.800;2023-09-19T04:04:47;12.65;;;2.20;;
22778;SDS011;11556;51.194;3.800;2023-09-19T04:07:13;11.15;;;2.38;;
22778;SDS011;11556;51.194;3.800;2023-09-19T04:09:39;13.35;;;2.78;;
22778;SDS011;11556;51.194;3.800;2023-09-19T04:12:04;15.88;;;2.60;;
22778;SDS011;11556;51.194;3.800;2023-09-19T04:14:30;11.40;;;2.47;;
22778;SDS011;11556;51.194;3.800;2023-09-19T04:16:56;12.45;;;2.67;;
22778;SDS011;11556;51.194;3.800;2023-09-19T04:19:21;15.85;;;3.03;;
22778;SDS011;11556;51.194;3.800;2023-09-19T04:21:47;15.57;;;2.88;;
22778;SDS011;11556;51.194;3.800;2023-09-19T04:24:13;10.77;;;2.90;;
22778;SDS011;11556;51.194;3.800;2023-09-19T04:26:39;17.77;;;3.25;;
22778;SDS011;11556;51.194;3.800;2023-09-19T04:29:04;19.70;;;3.20;;
22778;SDS011;11556;51.194;3.800;2023-09-19T04:31:31;12.95;;;2.85;;
22778;SDS011;11556;51.194;3.800;2023-09-19T04:33:56;14.98;;;2.88;;
22778;SDS011;11556;51.194;3.800;2023-09-19T04:36:24;18.55;;;3.30;;
22778;SDS011;11556;51.194;3.800;2023-09-19T04:38:49;13.13;;;2.28;;
22778;SDS011;11556;51.194;3.800;2023-09-19T04:41:15;15.32;;;3.03;;
22778;SDS011;11556;51.194;3.800;2023-09-19T04:43:41;18.73;;;3.13;;
22778;SDS011;11556;51.194;3.800;2023-09-19T04:46:06;14.15;;;2.65;;
22778;SDS011;11556;51.194;3.800;2023-09-19T04:48:32;14.55;;;2.92;;
22778;SDS011;11556;51.194;3.800;2023-09-19T04:50:59;19.73;;;3.00;;
22778;SDS011;11556;51.194;3.800;2023-09-19T04:53:25;14.27;;;2.33;;
22778;SDS011;11556;51.194;3.800;2023-09-19T04:55:52;14.25;;;2.95;;
22778;SDS011;11556;51.194;3.800;2023-09-19T04:58:20;12.82;;;2.83;;
22778;SDS011;11556;51.194;3.800;2023-09-19T05:00:46;11.27;;;2.70;;
22778;SDS011;11556;51.194;3.800;2023-09-19T05:03:12;13.07;;;2.20;;
22778;SDS011;11556;51.194;3.800;2023-09-19T05:05:37;20.85;;;3.15;;
22778;SDS011;11556;51.194;3.800;2023-09-19T05:08:04;26.77;;;3.22;;
22778;SDS011;11556;51.194;3.800;2023-09-19T05:10:30;18.70;;;2.97;;
22778;SDS011;11556;51.194;3.800;2023-09-19T05:12:57;15.13;;;2.60;;
22778;SDS011;11556;51.194;3.800;2023-09-19T05:15:22;15.15;;;3.13;;
22778;SDS011;11556;51.194;3.800;2023-09-19T05:17:49;19.85;;;3.60;;
22778;SDS011;11556;51.194;3.800;2023-09-19T05:20:16;18.10;;;3.38;;
22778;SDS011;11556;51.194;3.800;2023-09-19T05:22:43;13.98;;;3.30;;
22778;SDS011;11556;51.194;3.800;2023-09-19T05:25:11;10.70;;;2.33;;
22778;SDS011;11556;51.194;3.800;2023-09-19T05:27:41;17.20;;;2.97;;
22778;SDS011;11556;51.194;3.800;2023-09-19T05:30:08;15.43;;;2.95;;
22778;SDS011;11556;51.194;3.800;2023-09-19T05:32:34;12.77;;;2.70;;
22778;SDS011;11556;51.194;3.800;2023-09-19T05:34:59;14.27;;;2.70;;
22778;SDS011;11556;51.194;3.800;2023-09-19T05:37:25;13.65;;;3.22;;
22778;SDS011;11556;51.194;3.800;2023-09-19T05:39:51;13.60;;;2.50;;
22778;SDS011;11556;51.194;3.800;2023-09-19T05:42:18;15.20;;;2.70;;
22778;SDS011;11556;51.194;3.800;2023-09-19T05:44:44;11.77;;;2.58;;
22778;SDS011;11556;51.194;3.800;2023-09-19T05:47:10;10.55;;;3.05;;
22778;SDS011;11556;51.194;3.800;2023-09-19T05:49:35;13.20;;;3.10;;
22778;SDS011;11556;51.194;3.800;2023-09-19T05:52:05;16.65;;;3.45;;
22778;SDS011;11556;51.194;3.800;2023-09-19T05:54:31;14.25;;;3.28;;
22778;SDS011;11556;51.194;3.800;2023-09-19T05:56:58;16.40;;;2.65;;
22778;SDS011;11556;51.194;3.800;2023-09-19T05:59:23;16.92;;;3.60;;
22778;SDS011;11556;51.194;3.800;2023-09-19T06:01:49;16.67;;;2.92;;
22778;SDS011;11556;51.194;3.800;2023-09-19T06:04:15;14.10;;;2.65;;
22778;SDS011;11556;51.194;3.800;2023-09-19T06:06:40;13.60;;;2.60;;
22778;SDS011;11556;51.194;3.800;2023-09-19T06:09:06;13.18;;;3.05;;
22778;SDS011;11556;51.194;3.800;2023-09-19T06:11:35;18.23;;;2.92;;
22778;SDS011;11556;51.194;3.800;2023-09-19T06:14:03;12.38;;;2.60;;
22778;SDS011;11556;51.194;3.800;2023-09-19T06:16:29;14.05;;;2.53;;
22778;SDS011;11556;51.194;3.800;2023-09-19T06:18:57;11.73;;;2.75;;
22778;SDS011;11556;51.194;3.800;2023-09-19T06:21:24;14.80;;;2.88;;
22778;SDS011;11556;51.194;3.800;2023-09-19T06:23:51;13.77;;;2.72;;
22778;SDS011;11556;51.194;3.800;2023-09-19T06:26:18;13.27;;;2.47;;
22778;SDS011;11556;51.194;3.800;2023-09-19T06:28:44;17.75;;;3.17;;
22778;SDS011;11556;51.194;3.800;2023-09-19T06:31:09;12.35;;;2.85;;
22778;SDS011;11556;51.194;3.800;2023-09-19T06:33:38;16.55;;;3.25;;
22778;SDS011;11556;51.194;3.800;2023-09-19T06:36:05;16.42;;;2.25;;
22778;SDS011;11556;51.194;3.800;2023-09-19T06:38:31;11.35;;;2.90;;
22778;SDS011;11556;51.194;3.800;2023-09-19T06:40:59;11.82;;;2.90;;
22778;SDS011;11556;51.194;3.800;2023-09-19T06:43:26;15.60;;;2.92;;
22778;SDS011;11556;51.194;3.800;2023-09-19T06:45:53;13.63;;;3.03;;
22778;SDS011;11556;51.194;3.800;2023-09-19T06:48:19;15.05;;;3.53;;
22778;SDS011;11556;51.194;3.800;2023-09-19T06:50:46;16.13;;;3.22;;
22778;SDS011;11556;51.194;3.800;2023-09-19T06:53:13;17.95;;;3.08;;
22778;SDS011;11556;51.194;3.800;2023-09-19T06:55:39;14.20;;;3.17;;
22778;SDS011;11556;51.194;3.800;2023-09-19T06:58:05;14.93;;;2.40;;
22778;SDS011;11556;51.194;3.800;2023-09-19T07:00:31;14.27;;;2.80;;
22778;SDS011;11556;51.194;3.800;2023-09-19T07:03:02;15.95;;;2.83;;
22778;SDS011;11556;51.194;3.800;2023-09-19T07:05:31;16.10;;;2.95;;
22778;SDS011;11556;51.194;3.800;2023-09-19T07:07:58;14.00;;;2.60;;
22778;SDS011;11556;51.194;3.800;2023-09-19T07:10:25;14.25;;;2.92;;
22778;SDS011;11556;51.194;3.800;2023-09-19T07:12:58;10.00;;;2.45;;
22778;SDS011;11556;51.194;3.800;2023-09-19T07:15:28;9.35;;;2.50;;
22778;SDS011;11556;51.194;3.800;2023-09-19T07:18:04;16.27;;;2.63;;
22778;SDS011;11556;51.194;3.800;2023-09-19T07:20:30;10.98;;;2.45;;
22778;SDS011;11556;51.194;3.800;2023-09-19T07:22:58;12.70;;;3.13;;
22778;SDS011;11556;51.194;3.800;2023-09-19T07:25:27;13.20;;;2.75;;
22778;SDS011;11556;51.194;3.800;2023-09-19T07:27:56;8.95;;;2.45;;
22778;SDS011;11556;51.194;3.800;2023-09-19T07:30:25;13.05;;;2.72;;
22778;SDS011;11556;51.194;3.800;2023-09-19T07:32:51;7.32;;;2.20;;
22778;SDS011;11556;51.194;3.800;2023-09-19T07:35:17;11.60;;;2.55;;
22778;SDS011;11556;51.194;3.800;2023-09-19T07:37:46;16.67;;;3.05;;
22778;SDS011;11556;51.194;3.800;2023-09-19T07:40:16;12.15;;;2.38;;
22778;SDS011;11556;51.194;3.800;2023-09-19T07:42:42;10.82;;;2.28;;
22778;SDS011;11556;51.194;3.800;2023-09-19T07:45:09;12.32;;;2.88;;
22778;SDS011;11556;51.194;3.800;2023-09-19T07:47:40;17.48;;;3.03;;
22778;SDS011;11556;51.194;3.800;2023-09-19T07:50:08;10.88;;;2.70;;
22778;SDS011;11556;51.194;3.800;2023-09-19T07:52:34;10.77;;;2.95;;
22778;SDS011;11556;51.194;3.800;2023-09-19T07:55:00;12.93;;;2.75;;
22778;SDS011;11556;51.194;3.800;2023-09-19T07:57:31;15.27;;;3.00;;
22778;SDS011;11556;51.194;3.800;2023-09-19T07:59:59;13.43;;;2.75;;
22778;SDS011;11556;51.194;3.800;2023-09-19T08:02:25;12.10;;;2.97;;
22778;SDS011;11556;51.194;3.800;2023-09-19T08:04:51;14.70;;;3.05;;
22778;SDS011;11556;51.194;3.800;2023-09-19T08:07:17;11.55;;;2.85;;
22778;SDS011;11556;51.194;3.800;2023-09-19T08:09:43;10.32;;;2.47;;
22778;SDS011;11556;51.194;3.800;2023-09-19T08:12:13;14.38;;;2.85;;
22778;SDS011;11556;51.194;3.800;2023-09-19T08:14:39;10.07;;;2.33;;
22778;SDS011;11556;51.194;3.800;2023-09-19T08:17:06;11.77;;;2.88;;
22778;SDS011;11556;51.194;3.800;2023-09-19T08:19:33;15.88;;;2.50;;
22778;SDS011;11556;51.194;3.800;2023-09-19T08:21:59;11.32;;;2.50;;
22778;SDS011;11556;51.194;3.800;2023-09-19T08:24:28;10.25;;;2.60;;
22778;SDS011;11556;51.194;3.800;2023-09-19T08:26:55;10.80;;;2.47;;
22778;SDS011;11556;51.194;3.800;2023-09-19T08:29:21;13.23;;;2.78;;
22778;SDS011;11556;51.194;3.800;2023-09-19T08:31:53;11.45;;;2.85;;
22778;SDS011;11556;51.194;3.800;2023-09-19T08:34:19;8.70;;;2.50;;
22778;SDS011;11556;51.194;3.800;2023-09-19T08:36:46;12.18;;;2.63;;
22778;SDS011;11556;51.194;3.800;2023-09-19T08:39:13;9.15;;;2.50;;
22778;SDS011;11556;51.194;3.800;2023-09-19T08:41:39;11.30;;;2.50;;
22778;SDS011;11556;51.194;3.800;2023-09-19T08:44:05;7.80;;;2.08;;
22778;SDS011;11556;51.194;3.800;2023-09-19T08:46:30;14.18;;;2.60;;
22778;SDS011;11556;51.194;3.800;2023-09-19T08:49:04;15.75;;;2.72;;
22778;SDS011;11556;51.194;3.800;2023-09-19T08:51:39;10.60;;;2.00;;
22778;SDS011;11556;51.194;3.800;2023-09-19T08:54:21;11.63;;;2.40;;
22778;SDS011;11556;51.194;3.800;2023-09-19T08:56:51;12.13;;;2.53;;
22778;SDS011;11556;51.194;3.800;2023-09-19T08:59:21;10.93;;;2.33;;
22778;SDS011;11556;51.194;3.800;2023-09-19T09:01:50;12.15;;;2.08;;
22778;SDS011;11556;51.194;3.800;2023-09-19T09:04:18;9.73;;;2.28;;
22778;SDS011;11556;51.194;3.800;2023-09-19T09:06:45;9.82;;;2.28;;
22778;SDS011;11556;51.194;3.800;2023-09-19T09:09:14;11.98;;;2.00;;
22778;SDS011;11556;51.194;3.800;2023-09-19T09:11:40;6.60;;;2.08;;
22778;SDS011;11556;51.194;3.800;2023-09-19T09:14:06;8.35;;;2.00;;
22778;SDS011;11556;51.194;3.800;2023-09-19T09:16:35;8.27;;;2.00;;
22778;SDS011;11556;51.194;3.800;2023-09-19T09:19:01;16.38;;;2.15;;
22778;SDS011;11556;51.194;3.800;2023-09-19T09:21:26;8.68;;;2.13;;
22778;SDS011;11556;51.194;3.800;2023-09-19T09:23:53;9.57;;;2.10;;
22778;SDS011;11556;51.194;3.800;2023-09-19T09:27:02;11.23;;;2.28;;
22778;SDS011;11556;51.194;3.800;2023-09-19T09:29:08;9.90;;;2.00;;
22778;SDS011;11556;51.194;3.800;2023-09-19T09:31:34;8.60;;;2.03;;
22778;SDS011;11556;51.194;3.800;2023-09-19T09:33:59;10.07;;;1.98;;
22778;SDS011;11556;51.194;3.800;2023-09-19T09:36:35;10.68;;;2.05;;
22778;SDS011;11556;51.194;3.800;2023-09-19T09:39:06;8.32;;;1.98;;
22778;SDS011;11556;51.194;3.800;2023-09-19T09:41:43;5.47;;;1.77;;
22778;SDS011;11556;51.194;3.800;2023-09-19T09:44:12;12.52;;;2.10;;
22778;SDS011;11556;51.194;3.800;2023-09-19T09:46:43;19.20;;;2.47;;
22778;SDS011;11556;51.194;3.800;2023-09-19T09:49:25;9.80;;;1.98;;
22778;SDS011;11556;51.194;3.800;2023-09-19T09:54:32;5.07;;;1.75;;
22778;SDS011;11556;51.194;3.800;2023-09-19T09:57:02;8.02;;;1.80;;
22778;SDS011;11556;51.194;3.800;2023-09-19T09:59:46;8.45;;;1.73;;
22778;SDS011;11556;51.194;3.800;2023-09-19T10:02:35;6.30;;;1.58;;
22778;SDS011;11556;51.194;3.800;2023-09-19T10:05:40;7.45;;;1.50;;
22778;SDS011;11556;51.194;3.800;2023-09-19T10:08:11;9.80;;;1.50;;
22778;SDS011;11556;51.194;3.800;2023-09-19T10:10:39;6.00;;;1.60;;
22778;SDS011;11556;51.194;3.800;2023-09-19T10:13:10;6.05;;;1.45;;
22778;SDS011;11556;51.194;3.800;2023-09-19T10:15:38;6.63;;;1.52;;
22778;SDS011;11556;51.194;3.800;2023-09-19T10:18:07;11.30;;;1.85;;
22778;SDS011;11556;51.194;3.800;2023-09-19T10:20:43;6.05;;;1.45;;
22778;SDS011;11556;51.194;3.800;2023-09-19T10:23:11;4.22;;;1.30;;
22778;SDS011;11556;51.194;3.800;2023-09-19T10:25:43;9.57;;;1.83;;
22778;SDS011;11556;51.194;3.800;2023-09-19T10:28:11;6.00;;;1.50;;
22778;SDS011;11556;51.194;3.800;2023-09-19T10:30:40;9.57;;;1.10;;
22778;SDS011;11556;51.194;3.800;2023-09-19T10:33:13;6.57;;;1.10;;
22778;SDS011;11556;51.194;3.800;2023-09-19T10:35:43;6.88;;;1.30;;
22778;SDS011;11556;51.194;3.800;2023-09-19T10:38:11;6.00;;;1.15;;
22778;SDS011;11556;51.194;3.800;2023-09-19T10:40:39;8.95;;;1.40;;
22778;SDS011;11556;51.194;3.800;2023-09-19T10:43:18;5.18;;;0.85;;
22778;SDS011;11556;51.194;3.800;2023-09-19T10:45:46;6.05;;;1.13;;
22778;SDS011;11556;51.194;3.800;2023-09-19T10:48:19;5.10;;;1.35;;
22778;SDS011;11556;51.194;3.800;2023-09-19T10:50:48;4.22;;;0.85;;
22778;SDS011;11556;51.194;3.800;2023-09-19T10:53:20;4.90;;;0.90;;
22778;SDS011;11556;51.194;3.800;2023-09-19T10:55:53;7.03;;;1.13;;
22778;SDS011;11556;51.194;3.800;2023-09-19T11:00:54;7.45;;;1.08;;
22778;SDS011;11556;51.194;3.800;2023-09-19T11:03:22;9.77;;;1.25;;
22778;SDS011;11556;51.194;3.800;2023-09-19T11:06:00;3.90;;;1.08;;
22778;SDS011;11556;51.194;3.800;2023-09-19T11:08:31;6.47;;;0.90;;
22778;SDS011;11556;51.194;3.800;2023-09-19T11:12:01;4.05;;;1.20;;
22778;SDS011;11556;51.194;3.800;2023-09-19T11:20:15;5.78;;;0.90;;
22778;SDS011;11556;51.194;3.800;2023-09-19T11:30:51;7.35;;;1.30;;
22778;SDS011;11556;51.194;3.800;2023-09-19T11:36:10;4.30;;;0.80;;
22778;SDS011;11556;51.194;3.800;2023-09-19T11:43:51;2.55;;;0.60;;
22778;SDS011;11556;51.194;3.800;2023-09-19T11:46:20;3.55;;;1.10;;
22778;SDS011;11556;51.194;3.800;2023-09-19T11:48:49;9.23;;;1.00;;
22778;SDS011;11556;51.194;3.800;2023-09-19T11:51:23;3.83;;;0.93;;
22778;SDS011;11556;51.194;3.800;2023-09-19T11:53:53;6.97;;;1.38;;
22778;SDS011;11556;51.194;3.800;2023-09-19T11:56:20;5.10;;;1.30;;
22778;SDS011;11556;51.194;3.800;2023-09-19T11:58:49;3.83;;;0.90;;
22778;SDS011;11556;51.194;3.800;2023-09-19T12:01:21;5.53;;;1.02;;
22778;SDS011;11556;51.194;3.800;2023-09-19T12:03:54;12.57;;;1.00;;
22778;SDS011;11556;51.194;3.800;2023-09-19T12:06:22;5.20;;;1.00;;
22778;SDS011;11556;51.194;3.800;2023-09-19T12:08:49;4.50;;;1.08;;
22778;SDS011;11556;51.194;3.800;2023-09-19T12:11:16;9.00;;;1.30;;
22778;SDS011;11556;51.194;3.800;2023-09-19T12:13:46;5.53;;;1.25;;
22778;SDS011;11556;51.194;3.800;2023-09-19T12:16:17;5.20;;;1.08;;
22778;SDS011;11556;51.194;3.800;2023-09-19T12:18:47;7.78;;;1.42;;
22778;SDS011;11556;51.194;3.800;2023-09-19T12:21:52;5.32;;;1.30;;
22778;SDS011;11556;51.194;3.800;2023-09-19T12:24:12;6.80;;;1.40;;
22778;SDS011;11556;51.194;3.800;2023-09-19T12:26:39;6.63;;;1.73;;
22778;SDS011;11556;51.194;3.800;2023-09-19T12:29:15;3.90;;;1.40;;
22778;SDS011;11556;51.194;3.800;2023-09-19T12:31:48;5.53;;;1.27;;
22778;SDS011;11556;51.194;3.800;2023-09-19T12:34:22;4.32;;;1.20;;
22778;SDS011;11556;51.194;3.800;2023-09-19T12:39:37;8.35;;;1.40;;
22778;SDS011;11556;51.194;3.800;2023-09-19T12:42:03;8.40;;;1.58;;
22778;SDS011;11556;51.194;3.800;2023-09-19T12:44:33;7.38;;;1.38;;
22778;SDS011;11556;51.194;3.800;2023-09-19T12:47:07;6.43;;;1.40;;
22778;SDS011;11556;51.194;3.800;2023-09-19T12:49:34;4.65;;;1.17;;
22778;SDS011;11556;51.194;3.800;2023-09-19T12:52:00;8.98;;;1.52;;
22778;SDS011;11556;51.194;3.800;2023-09-19T12:54:37;9.93;;;1.65;;
22778;SDS011;11556;51.194;3.800;2023-09-19T12:57:04;6.95;;;1.50;;
22778;SDS011;11556;51.194;3.800;2023-09-19T12:59:30;5.38;;;1.70;;
22778;SDS011;11556;51.194;3.800;2023-09-19T13:02:03;9.10;;;1.80;;
22778;SDS011;11556;51.194;3.800;2023-09-19T13:04:32;5.82;;;1.73;;
22778;SDS011;11556;51.194;3.800;2023-09-19T13:06:59;6.97;;;1.90;;
22778;SDS011;11556;51.194;3.800;2023-09-19T13:09:30;5.00;;;1.50;;
22778;SDS011;11556;51.194;3.800;2023-09-19T13:12:03;5.03;;;1.73;;
22778;SDS011;11556;51.194;3.800;2023-09-19T13:14:31;6.88;;;1.70;;
22778;SDS011;11556;51.194;3.800;2023-09-19T13:17:03;7.35;;;1.60;;
22778;SDS011;11556;51.194;3.800;2023-09-19T13:25:01;9.75;;;1.77;;
22778;SDS011;11556;51.194;3.800;2023-09-19T13:27:29;4.55;;;1.40;;
22778;SDS011;11556;51.194;3.800;2023-09-19T13:29:54;9.27;;;1.88;;
22778;SDS011;11556;51.194;3.800;2023-09-19T13:32:20;7.55;;;1.45;;
22778;SDS011;11556;51.194;3.800;2023-09-19T13:34:45;4.65;;;1.45;;
22778;SDS011;11556;51.194;3.800;2023-09-19T13:37:11;8.57;;;1.70;;
22778;SDS011;11556;51.194;3.800;2023-09-19T13:39:38;6.15;;;1.73;;
22778;SDS011;11556;51.194;3.800;2023-09-19T13:42:07;5.85;;;2.08;;
22778;SDS011;11556;51.194;3.800;2023-09-19T13:44:35;9.75;;;1.98;;
22778;SDS011;11556;51.194;3.800;2023-09-19T13:47:00;9.15;;;2.10;;
22778;SDS011;11556;51.194;3.800;2023-09-19T13:49:27;12.52;;;1.92;;
22778;SDS011;11556;51.194;3.800;2023-09-19T13:51:52;9.68;;;2.05;;
22778;SDS011;11556;51.194;3.800;2023-09-19T13:54:20;7.63;;;2.50;;
22778;SDS011;11556;51.194;3.800;2023-09-19T13:56:45;7.60;;;1.95;;
22778;SDS011;11556;51.194;3.800;2023-09-19T13:59:11;9.45;;;2.72;;
22778;SDS011;11556;51.194;3.800;2023-09-19T14:01:37;5.95;;;1.92;;
22778;SDS011;11556;51.194;3.800;2023-09-19T14:04:02;7.85;;;1.73;;
22778;SDS011;11556;51.194;3.800;2023-09-19T14:06:28;7.65;;;2.35;;
22778;SDS011;11556;51.194;3.800;2023-09-19T14:08:54;9.63;;;2.08;;
22778;SDS011;11556;51.194;3.800;2023-09-19T14:11:20;3.60;;;1.35;;
22778;SDS011;11556;51.194;3.800;2023-09-19T14:13:46;10.20;;;2.65;;
22778;SDS011;11556;51.194;3.800;2023-09-19T14:16:13;8.43;;;2.30;;
22778;SDS011;11556;51.194;3.800;2023-09-19T14:18:40;8.30;;;2.15;;
22778;SDS011;11556;51.194;3.800;2023-09-19T14:21:07;9.02;;;3.33;;
22778;SDS011;11556;51.194;3.800;2023-09-19T14:23:36;7.55;;;2.60;;
22778;SDS011;11556;51.194;3.800;2023-09-19T14:26:03;6.28;;;2.50;;
22778;SDS011;11556;51.194;3.800;2023-09-19T14:28:30;9.68;;;2.47;;
22778;SDS011;11556;51.194;3.800;2023-09-19T14:30:56;5.68;;;2.05;;
22778;SDS011;11556;51.194;3.800;2023-09-19T14:33:21;11.65;;;3.97;;
22778;SDS011;11556;51.194;3.800;2023-09-19T14:35:47;5.07;;;1.65;;
22778;SDS011;11556;51.194;3.800;2023-09-19T14:38:12;4.63;;;1.60;;
22778;SDS011;11556;51.194;3.800;2023-09-19T14:40:39;6.35;;;1.90;;
22778;SDS011;11556;51.194;3.800;2023-09-19T14:43:05;5.10;;;1.60;;
22778;SDS011;11556;51.194;3.800;2023-09-19T14:45:35;4.60;;;1.48;;
22778;SDS011;11556;51.194;3.800;2023-09-19T14:48:01;8.07;;;1.73;;
22778;SDS011;11556;51.194;3.800;2023-09-19T14:50:30;6.47;;;1.65;;
22778;SDS011;11556;51.194;3.800;2023-09-19T14:52:56;10.80;;;1.83;;
22778;SDS011;11556;51.194;3.800;2023-09-19T14:55:23;5.20;;;1.77;;
22778;SDS011;11556;51.194;3.800;2023-09-19T14:57:49;7.78;;;1.42;;
22778;SDS011;11556;51.194;3.800;2023-09-19T15:00:17;8.82;;;1.75;;
22778;SDS011;11556;51.194;3.800;2023-09-19T15:02:45;6.07;;;1.80;;
22778;SDS011;11556;51.194;3.800;2023-09-19T15:05:13;6.60;;;1.85;;
22778;SDS011;11556;51.194;3.800;2023-09-19T15:07:40;9.20;;;2.30;;
22778;SDS011;11556;51.194;3.800;2023-09-19T15:10:06;8.40;;;2.05;;
22778;SDS011;11556;51.194;3.800;2023-09-19T15:12:34;7.85;;;2.33;;
22778;SDS011;11556;51.194;3.800;2023-09-19T15:15:03;9.25;;;2.78;;
22778;SDS011;11556;51.194;3.800;2023-09-19T15:17:33;5.53;;;1.80;;
22778;SDS011;11556;51.194;3.800;2023-09-19T15:19:59;7.00;;;1.80;;
22778;SDS011;11556;51.194;3.800;2023-09-19T15:22:25;13.55;;;2.30;;
22778;SDS011;11556;51.194;3.800;2023-09-19T15:24:51;6.63;;;1.95;;
22778;SDS011;11556;51.194;3.800;2023-09-19T15:27:17;7.55;;;2.50;;
22778;SDS011;11556;51.194;3.800;2023-09-19T15:29:45;8.43;;;2.30;;
22778;SDS011;11556;51.194;3.800;2023-09-19T15:32:11;9.32;;;2.10;;
22778;SDS011;11556;51.194;3.800;2023-09-19T15:34:36;9.00;;;2.28;;
22778;SDS011;11556;51.194;3.800;2023-09-19T15:37:02;10.07;;;2.22;;